sensor_id;sensor_type;location;lat;lon;timestamp;P1;durP1;ratioP1;P2;durP2;ratioP2
1753;SDS011;58380;48.312;9.246;2023-11-21T08:35:26;15.43;;;7.30;;
1753;SDS011;58380;48.312;9.246;2023-11-21T08:38:27;11.32;;;7.05;;
1753;SDS011;58380;48.312;9.246;2023-11-21T08:41:28;9.40;;;6.28;;
1753;SDS011;58380;48.312;9.246;2023-11-21T08:44:30;27.10;;;12.50;;
1753;SDS011;58380;48.312;9.246;2023-11-21T08:47:31;59.83;;;26.63;;
1753;SDS011;58380;48.312;9.246;2023-11-21T08:50:32;8.70;;;4.68;;
1753;SDS011;58380;48.312;9.246;2023-11-21T08:53:32;10.77;;;7.40;;
1753;SDS011;58380;48.312;9.246;2023-11-21T08:56:33;16.00;;;10.57;;
1753;SDS011;58380;48.312;9.246;2023-11-21T08:59:34;11.98;;;9.23;;
1753;SDS011;58380;48.312;9.246;2023-11-21T09:02:38;9.52;;;5.88;;
1753;SDS011;58380;48.312;9.246;2023-11-21T09:05:41;6.10;;;3.70;;
1753;SDS011;58380;48.312;9.246;2023-11-21T09:08:42;5.55;;;2.70;;
1753;SDS011;58380;48.312;9.246;2023-11-21T09:11:43;4.93;;;2.92;;
1753;SDS011;58380;48.312;9.246;2023-11-21T09:14:48;4.70;;;1.80;;
1753;SDS011;58380;48.312;9.246;2023-11-21T09:17:55;1.90;;;0.90;;
1753;SDS011;58380;48.312;9.246;2023-11-21T09:21:02;3.78;;;1.38;;
1753;SDS011;58380;48.312;9.246;2023-11-21T09:24:30;1.63;;;1.10;;
1753;SDS011;58380;48.312;9.246;2023-11-21T09:27:40;3.30;;;1.92;;
1753;SDS011;58380;48.312;9.246;2023-11-21T09:31:03;4.43;;;2.60;;
1753;SDS011;58380;48.312;9.246;2023-11-21T09:34:42;2.40;;;1.30;;
1753;SDS011;58380;48.312;9.246;2023-11-21T09:37:44;6.00;;;3.28;;
1753;SDS011;58380;48.312;9.246;2023-11-21T09:40:45;3.83;;;2.60;;
1753;SDS011;58380;48.312;9.246;2023-11-21T09:43:46;2.95;;;1.50;;
1753;SDS011;58380;48.312;9.246;2023-11-21T09:46:53;3.13;;;1.35;;
1753;SDS011;58380;48.312;9.246;2023-11-21T09:49:57;2.30;;;0.90;;
1753;SDS011;58380;48.312;9.246;2023-11-21T09:53:17;0.80;;;0.70;;
1753;SDS011;58380;48.312;9.246;2023-11-21T09:56:21;2.13;;;0.80;;
1753;SDS011;58380;48.312;9.246;2023-11-21T09:59:23;1.55;;;0.63;;
1753;SDS011;58380;48.312;9.246;2023-11-21T10:02:25;1.63;;;0.77;;
1753;SDS011;58380;48.312;9.246;2023-11-21T10:05:32;3.97;;;1.65;;
1753;SDS011;58380;48.312;9.246;2023-11-21T10:08:34;2.83;;;0.90;;
1753;SDS011;58380;48.312;9.246;2023-11-21T10:11:37;1.20;;;0.60;;
1753;SDS011;58380;48.312;9.246;2023-11-21T10:14:43;0.80;;;0.50;;
1753;SDS011;58380;48.312;9.246;2023-11-21T10:17:49;0.80;;;0.45;;
1753;SDS011;58380;48.312;9.246;2023-11-21T10:20:53;1.30;;;0.73;;
1753;SDS011;58380;48.312;9.246;2023-11-21T10:23:57;1.10;;;0.70;;
1753;SDS011;58380;48.312;9.246;2023-11-21T10:26:57;1.52;;;0.65;;
1753;SDS011;58380;48.312;9.246;2023-11-21T10:30:00;1.95;;;0.75;;
1753;SDS011;58380;48.312;9.246;2023-11-21T10:33:03;1.15;;;0.68;;
1753;SDS011;58380;48.312;9.246;2023-11-21T10:36:06;2.47;;;1.10;;
1753;SDS011;58380;48.312;9.246;2023-11-21T10:39:08;2.35;;;1.00;;
1753;SDS011;58380;48.312;9.246;2023-11-21T10:42:12;0.88;;;0.60;;
1753;SDS011;58380;48.312;9.246;2023-11-21T10:45:12;0.90;;;0.60;;
1753;SDS011;58380;48.312;9.246;2023-11-21T10:48:14;1.15;;;0.63;;
1753;SDS011;58380;48.312;9.246;2023-11-21T10:51:16;0.75;;;0.43;;
1753;SDS011;58380;48.312;9.246;2023-11-21T10:54:22;0.50;;;0.40;;
1753;SDS011;58380;48.312;9.246;2023-11-21T10:57:27;0.75;;;0.38;;
1753;SDS011;58380;48.312;9.246;2023-11-21T11:00:28;1.42;;;0.43;;
1753;SDS011;58380;48.312;9.246;2023-11-21T11:03:30;0.80;;;0.47;;
1753;SDS011;58380;48.312;9.246;2023-11-21T11:06:33;1.20;;;0.28;;
1753;SDS011;58380;48.312;9.246;2023-11-21T11:09:33;0.55;;;0.30;;
1753;SDS011;58380;48.312;9.246;2023-11-21T11:12:34;2.50;;;0.43;;
1753;SDS011;58380;48.312;9.246;2023-11-21T11:15:36;0.85;;;0.60;;
1753;SDS011;58380;48.312;9.246;2023-11-21T11:18:36;1.10;;;0.50;;
1753;SDS011;58380;48.312;9.246;2023-11-21T11:21:47;0.98;;;0.40;;
1753;SDS011;58380;48.312;9.246;2023-11-21T11:28:44;0.98;;;0.47;;
1753;SDS011;58380;48.312;9.246;2023-11-21T11:35:17;1.27;;;0.93;;
1753;SDS011;58380;48.312;9.246;2023-11-21T11:38:31;0.50;;;0.30;;
1753;SDS011;58380;48.312;9.246;2023-11-21T11:41:33;0.50;;;0.40;;
1753;SDS011;58380;48.312;9.246;2023-11-21T11:47:47;0.43;;;0.30;;
1753;SDS011;58380;48.312;9.246;2023-11-21T11:51:01;0.35;;;0.20;;
1753;SDS011;58380;48.312;9.246;2023-11-21T11:54:34;1.08;;;0.60;;
1753;SDS011;58380;48.312;9.246;2023-11-21T11:57:37;1.02;;;0.60;;
1753;SDS011;58380;48.312;9.246;2023-11-21T12:00:39;1.05;;;0.40;;
1753;SDS011;58380;48.312;9.246;2023-11-21T12:03:40;0.30;;;0.30;;
1753;SDS011;58380;48.312;9.246;2023-11-21T12:06:43;1.23;;;0.60;;
1753;SDS011;58380;48.312;9.246;2023-11-21T12:09:44;1.92;;;1.13;;
1753;SDS011;58380;48.312;9.246;2023-11-21T12:12:48;2.67;;;1.50;;
1753;SDS011;58380;48.312;9.246;2023-11-21T12:15:51;1.60;;;0.90;;
1753;SDS011;58380;48.312;9.246;2023-11-21T12:18:52;0.70;;;0.30;;
1753;SDS011;58380;48.312;9.246;2023-11-21T12:21:53;0.10;;;0.10;;
1753;SDS011;58380;48.312;9.246;2023-11-21T12:24:55;0.50;;;0.15;;
1753;SDS011;58380;48.312;9.246;2023-11-21T12:27:56;1.00;;;0.50;;
1753;SDS011;58380;48.312;9.246;2023-11-21T12:30:58;1.00;;;0.60;;
1753;SDS011;58380;48.312;9.246;2023-11-21T12:33:59;1.20;;;0.50;;
1753;SDS011;58380;48.312;9.246;2023-11-21T12:37:00;0.55;;;0.40;;
1753;SDS011;58380;48.312;9.246;2023-11-21T12:40:01;1.70;;;0.90;;
1753;SDS011;58380;48.312;9.246;2023-11-21T12:43:01;1.05;;;0.80;;
1753;SDS011;58380;48.312;9.246;2023-11-21T12:46:04;0.65;;;0.50;;
1753;SDS011;58380;48.312;9.246;2023-11-21T12:49:11;0.88;;;0.40;;
1753;SDS011;58380;48.312;9.246;2023-11-21T12:52:17;0.80;;;0.50;;
1753;SDS011;58380;48.312;9.246;2023-11-21T12:55:19;1.85;;;0.70;;
1753;SDS011;58380;48.312;9.246;2023-11-21T12:58:22;2.50;;;1.50;;
1753;SDS011;58380;48.312;9.246;2023-11-21T13:01:25;0.95;;;0.50;;
1753;SDS011;58380;48.312;9.246;2023-11-21T13:04:32;0.47;;;0.40;;
1753;SDS011;58380;48.312;9.246;2023-11-21T13:07:41;1.90;;;1.10;;
1753;SDS011;58380;48.312;9.246;2023-11-21T13:10:48;2.30;;;1.30;;
1753;SDS011;58380;48.312;9.246;2023-11-21T13:13:52;1.20;;;0.30;;
1753;SDS011;58380;48.312;9.246;2023-11-21T13:16:56;0.47;;;0.20;;
1753;SDS011;58380;48.312;9.246;2023-11-21T13:19:56;0.28;;;0.25;;
1753;SDS011;58380;48.312;9.246;2023-11-21T13:22:58;0.70;;;0.32;;
1753;SDS011;58380;48.312;9.246;2023-11-21T13:26:01;0.65;;;0.10;;
1753;SDS011;58380;48.312;9.246;2023-11-21T13:29:04;0.45;;;0.20;;
1753;SDS011;58380;48.312;9.246;2023-11-21T13:32:05;0.88;;;0.17;;
1753;SDS011;58380;48.312;9.246;2023-11-21T13:35:06;0.30;;;0.20;;
1753;SDS011;58380;48.312;9.246;2023-11-21T13:38:14;0.55;;;0.20;;
1753;SDS011;58380;48.312;9.246;2023-11-21T13:41:17;1.08;;;0.20;;
1753;SDS011;58380;48.312;9.246;2023-11-21T13:44:18;0.65;;;0.38;;
1753;SDS011;58380;48.312;9.246;2023-11-21T13:47:34;0.30;;;0.28;;
1753;SDS011;58380;48.312;9.246;2023-11-21T13:50:40;1.42;;;0.28;;
1753;SDS011;58380;48.312;9.246;2023-11-21T13:53:58;0.28;;;0.20;;
1753;SDS011;58380;48.312;9.246;2023-11-21T13:56:59;0.22;;;0.17;;
1753;SDS011;58380;48.312;9.246;2023-11-21T14:00:00;2.13;;;0.20;;
1753;SDS011;58380;48.312;9.246;2023-11-21T14:03:01;0.30;;;0.10;;
1753;SDS011;58380;48.312;9.246;2023-11-21T14:06:05;0.15;;;0.05;;
1753;SDS011;58380;48.312;9.246;2023-11-21T14:09:15;0.63;;;0.10;;
1753;SDS011;58380;48.312;9.246;2023-11-21T14:12:22;0.05;;;0.05;;
1753;SDS011;58380;48.312;9.246;2023-11-21T14:15:25;0.10;;;0.10;;
1753;SDS011;58380;48.312;9.246;2023-11-21T14:18:28;0.35;;;0.10;;
1753;SDS011;58380;48.312;9.246;2023-11-21T14:21:38;0.30;;;0.15;;
1753;SDS011;58380;48.312;9.246;2023-11-21T14:24:40;0.45;;;0.10;;
1753;SDS011;58380;48.312;9.246;2023-11-21T14:27:46;0.10;;;0.10;;
1753;SDS011;58380;48.312;9.246;2023-11-21T14:30:47;0.25;;;0.08;;
1753;SDS011;58380;48.312;9.246;2023-11-21T14:33:47;1.45;;;0.10;;
1753;SDS011;58380;48.312;9.246;2023-11-21T14:36:48;0.10;;;0.10;;
1753;SDS011;58380;48.312;9.246;2023-11-21T14:39:49;0.80;;;0.20;;
1753;SDS011;58380;48.312;9.246;2023-11-21T14:42:52;0.20;;;0.20;;
1753;SDS011;58380;48.312;9.246;2023-11-21T14:45:54;0.20;;;0.20;;
1753;SDS011;58380;48.312;9.246;2023-11-21T14:48:56;0.30;;;0.20;;
1753;SDS011;58380;48.312;9.246;2023-11-21T14:52:10;0.43;;;0.30;;
1753;SDS011;58380;48.312;9.246;2023-11-21T14:55:33;0.60;;;0.35;;
1753;SDS011;58380;48.312;9.246;2023-11-21T14:58:57;0.68;;;0.40;;
1753;SDS011;58380;48.312;9.246;2023-11-21T15:01:59;3.53;;;1.45;;
1753;SDS011;58380;48.312;9.246;2023-11-21T15:05:14;0.73;;;0.43;;
1753;SDS011;58380;48.312;9.246;2023-11-21T15:08:16;2.33;;;1.50;;
1753;SDS011;58380;48.312;9.246;2023-11-21T15:11:30;1.42;;;0.75;;
1753;SDS011;58380;48.312;9.246;2023-11-21T15:14:30;2.33;;;1.00;;
1753;SDS011;58380;48.312;9.246;2023-11-21T15:17:31;2.35;;;1.30;;
1753;SDS011;58380;48.312;9.246;2023-11-21T15:20:32;2.55;;;1.40;;
1753;SDS011;58380;48.312;9.246;2023-11-21T15:23:33;1.25;;;0.50;;
1753;SDS011;58380;48.312;9.246;2023-11-21T15:26:35;1.67;;;0.50;;
1753;SDS011;58380;48.312;9.246;2023-11-21T15:29:35;0.80;;;0.30;;
1753;SDS011;58380;48.312;9.246;2023-11-21T15:32:35;5.28;;;2.60;;
1753;SDS011;58380;48.312;9.246;2023-11-21T15:35:36;3.10;;;1.70;;
1753;SDS011;58380;48.312;9.246;2023-11-21T15:38:38;1.75;;;1.08;;
1753;SDS011;58380;48.312;9.246;2023-11-21T15:41:39;1.45;;;0.77;;
1753;SDS011;58380;48.312;9.246;2023-11-21T15:44:39;1.67;;;0.70;;
1753;SDS011;58380;48.312;9.246;2023-11-21T15:47:40;4.28;;;2.65;;
1753;SDS011;58380;48.312;9.246;2023-11-21T15:50:42;7.78;;;4.22;;
1753;SDS011;58380;48.312;9.246;2023-11-21T15:53:43;4.55;;;2.50;;
1753;SDS011;58380;48.312;9.246;2023-11-21T15:56:44;5.97;;;2.58;;
1753;SDS011;58380;48.312;9.246;2023-11-21T15:59:44;3.20;;;2.50;;
1753;SDS011;58380;48.312;9.246;2023-11-21T16:02:47;4.20;;;2.90;;
1753;SDS011;58380;48.312;9.246;2023-11-21T16:05:48;2.50;;;2.13;;
1753;SDS011;58380;48.312;9.246;2023-11-21T16:08:49;4.43;;;2.88;;
1753;SDS011;58380;48.312;9.246;2023-11-21T16:11:49;4.63;;;3.20;;
1753;SDS011;58380;48.312;9.246;2023-11-21T16:17:58;4.93;;;2.70;;
1753;SDS011;58380;48.312;9.246;2023-11-21T16:20:59;3.20;;;2.47;;
1753;SDS011;58380;48.312;9.246;2023-11-21T16:23:59;5.35;;;3.85;;
1753;SDS011;58380;48.312;9.246;2023-11-21T16:27:00;4.95;;;3.63;;
1753;SDS011;58380;48.312;9.246;2023-11-21T16:30:03;3.50;;;2.55;;
1753;SDS011;58380;48.312;9.246;2023-11-21T16:33:05;3.15;;;2.28;;
1753;SDS011;58380;48.312;9.246;2023-11-21T16:36:07;2.03;;;1.63;;
1753;SDS011;58380;48.312;9.246;2023-11-21T16:39:08;2.92;;;1.80;;
1753;SDS011;58380;48.312;9.246;2023-11-21T16:42:12;1.90;;;1.50;;
1753;SDS011;58380;48.312;9.246;2023-11-21T16:45:13;2.63;;;1.38;;
1753;SDS011;58380;48.312;9.246;2023-11-21T16:48:13;1.05;;;0.73;;
1753;SDS011;58380;48.312;9.246;2023-11-21T16:51:17;0.73;;;0.68;;
1753;SDS011;58380;48.312;9.246;2023-11-21T16:54:18;0.70;;;0.47;;
1753;SDS011;58380;48.312;9.246;2023-11-21T16:57:21;0.90;;;0.60;;
1753;SDS011;58380;48.312;9.246;2023-11-21T17:00:21;3.20;;;2.30;;
1753;SDS011;58380;48.312;9.246;2023-11-21T17:03:22;2.95;;;2.20;;
1753;SDS011;58380;48.312;9.246;2023-11-21T17:06:26;4.38;;;1.50;;
1753;SDS011;58380;48.312;9.246;2023-11-21T17:09:27;3.55;;;2.25;;
1753;SDS011;58380;48.312;9.246;2023-11-21T17:12:28;2.30;;;1.88;;
1753;SDS011;58380;48.312;9.246;2023-11-21T17:15:29;3.78;;;2.20;;
1753;SDS011;58380;48.312;9.246;2023-11-21T17:18:29;2.70;;;1.95;;
1753;SDS011;58380;48.312;9.246;2023-11-21T17:21:30;1.92;;;1.30;;
1753;SDS011;58380;48.312;9.246;2023-11-21T17:24:32;1.40;;;1.00;;
1753;SDS011;58380;48.312;9.246;2023-11-21T17:27:34;1.77;;;1.20;;
1753;SDS011;58380;48.312;9.246;2023-11-21T17:30:35;1.50;;;1.20;;
1753;SDS011;58380;48.312;9.246;2023-11-21T17:33:37;1.50;;;1.10;;
1753;SDS011;58380;48.312;9.246;2023-11-21T17:36:41;4.25;;;1.83;;
1753;SDS011;58380;48.312;9.246;2023-11-21T17:39:43;2.60;;;1.58;;
1753;SDS011;58380;48.312;9.246;2023-11-21T17:42:43;3.60;;;1.70;;
1753;SDS011;58380;48.312;9.246;2023-11-21T17:45:44;4.40;;;1.90;;
1753;SDS011;58380;48.312;9.246;2023-11-21T17:48:44;3.85;;;2.22;;
1753;SDS011;58380;48.312;9.246;2023-11-21T17:51:45;7.47;;;3.30;;
1753;SDS011;58380;48.312;9.246;2023-11-21T17:54:45;4.40;;;2.35;;
1753;SDS011;58380;48.312;9.246;2023-11-21T17:57:46;2.63;;;2.05;;
1753;SDS011;58380;48.312;9.246;2023-11-21T18:00:47;5.65;;;2.80;;
1753;SDS011;58380;48.312;9.246;2023-11-21T18:03:47;3.83;;;2.47;;
1753;SDS011;58380;48.312;9.246;2023-11-21T18:06:48;3.28;;;2.42;;
1753;SDS011;58380;48.312;9.246;2023-11-21T18:09:49;2.90;;;1.90;;
1753;SDS011;58380;48.312;9.246;2023-11-21T18:12:49;4.40;;;2.40;;
1753;SDS011;58380;48.312;9.246;2023-11-21T18:15:50;5.03;;;3.35;;
1753;SDS011;58380;48.312;9.246;2023-11-21T18:18:50;3.97;;;2.63;;
1753;SDS011;58380;48.312;9.246;2023-11-21T18:21:51;3.28;;;2.45;;
1753;SDS011;58380;48.312;9.246;2023-11-21T18:24:52;4.88;;;2.28;;
1753;SDS011;58380;48.312;9.246;2023-11-21T18:27:55;4.65;;;2.10;;
1753;SDS011;58380;48.312;9.246;2023-11-21T18:30:56;3.75;;;2.47;;
1753;SDS011;58380;48.312;9.246;2023-11-21T18:33:56;3.03;;;2.17;;
1753;SDS011;58380;48.312;9.246;2023-11-21T18:36:57;4.38;;;2.25;;
1753;SDS011;58380;48.312;9.246;2023-11-21T18:39:57;5.45;;;3.13;;
1753;SDS011;58380;48.312;9.246;2023-11-21T18:42:58;4.13;;;2.55;;
1753;SDS011;58380;48.312;9.246;2023-11-21T18:45:58;4.82;;;2.80;;
1753;SDS011;58380;48.312;9.246;2023-11-21T18:49:02;5.70;;;4.07;;
1753;SDS011;58380;48.312;9.246;2023-11-21T18:52:02;4.10;;;2.55;;
1753;SDS011;58380;48.312;9.246;2023-11-21T18:55:03;4.82;;;2.75;;
1753;SDS011;58380;48.312;9.246;2023-11-21T18:58:04;7.32;;;4.63;;
1753;SDS011;58380;48.312;9.246;2023-11-21T19:01:05;9.57;;;5.75;;
1753;SDS011;58380;48.312;9.246;2023-11-21T19:04:06;8.15;;;3.50;;
1753;SDS011;58380;48.312;9.246;2023-11-21T19:07:07;6.03;;;3.70;;
1753;SDS011;58380;48.312;9.246;2023-11-21T19:10:07;6.72;;;4.15;;
1753;SDS011;58380;48.312;9.246;2023-11-21T19:13:11;5.95;;;3.88;;
1753;SDS011;58380;48.312;9.246;2023-11-21T19:16:11;8.00;;;4.75;;
1753;SDS011;58380;48.312;9.246;2023-11-21T19:19:14;5.63;;;4.20;;
1753;SDS011;58380;48.312;9.246;2023-11-21T19:22:17;11.90;;;8.57;;
1753;SDS011;58380;48.312;9.246;2023-11-21T19:25:18;8.57;;;6.40;;
1753;SDS011;58380;48.312;9.246;2023-11-21T19:28:19;11.13;;;6.90;;
1753;SDS011;58380;48.312;9.246;2023-11-21T19:31:19;7.80;;;5.40;;
1753;SDS011;58380;48.312;9.246;2023-11-21T19:34:21;11.13;;;8.63;;
1753;SDS011;58380;48.312;9.246;2023-11-21T19:37:21;10.00;;;7.55;;
1753;SDS011;58380;48.312;9.246;2023-11-21T19:40:22;8.38;;;5.30;;
1753;SDS011;58380;48.312;9.246;2023-11-21T19:43:23;10.55;;;6.97;;
1753;SDS011;58380;48.312;9.246;2023-11-21T19:46:23;12.30;;;5.88;;
1753;SDS011;58380;48.312;9.246;2023-11-21T19:49:23;7.82;;;5.30;;
1753;SDS011;58380;48.312;9.246;2023-11-21T19:52:24;8.48;;;4.28;;
1753;SDS011;58380;48.312;9.246;2023-11-21T19:55:26;6.78;;;5.15;;
1753;SDS011;58380;48.312;9.246;2023-11-21T19:58:26;14.88;;;8.25;;
1753;SDS011;58380;48.312;9.246;2023-11-21T20:01:27;13.65;;;8.13;;
1753;SDS011;58380;48.312;9.246;2023-11-21T20:04:28;10.13;;;5.47;;
1753;SDS011;58380;48.312;9.246;2023-11-21T20:07:28;10.40;;;5.35;;
1753;SDS011;58380;48.312;9.246;2023-11-21T20:10:31;9.88;;;5.68;;
1753;SDS011;58380;48.312;9.246;2023-11-21T20:13:32;7.32;;;4.85;;
1753;SDS011;58380;48.312;9.246;2023-11-21T20:16:32;7.97;;;5.93;;
1753;SDS011;58380;48.312;9.246;2023-11-21T20:19:39;10.93;;;5.88;;
1753;SDS011;58380;48.312;9.246;2023-11-21T20:22:41;8.73;;;5.57;;
1753;SDS011;58380;48.312;9.246;2023-11-21T20:25:45;9.48;;;5.85;;
1753;SDS011;58380;48.312;9.246;2023-11-21T20:28:46;11.10;;;6.75;;
1753;SDS011;58380;48.312;9.246;2023-11-21T20:31:46;10.15;;;6.22;;
1753;SDS011;58380;48.312;9.246;2023-11-21T20:34:46;8.45;;;6.13;;
1753;SDS011;58380;48.312;9.246;2023-11-21T20:37:47;13.90;;;7.95;;
1753;SDS011;58380;48.312;9.246;2023-11-21T20:40:47;15.82;;;8.30;;
1753;SDS011;58380;48.312;9.246;2023-11-21T20:43:48;14.13;;;7.75;;
1753;SDS011;58380;48.312;9.246;2023-11-21T20:46:48;8.30;;;5.97;;
1753;SDS011;58380;48.312;9.246;2023-11-21T20:49:49;9.25;;;6.28;;
1753;SDS011;58380;48.312;9.246;2023-11-21T20:52:51;7.35;;;5.65;;
1753;SDS011;58380;48.312;9.246;2023-11-21T20:55:51;11.43;;;8.25;;
1753;SDS011;58380;48.312;9.246;2023-11-21T20:58:52;10.15;;;7.10;;
1753;SDS011;58380;48.312;9.246;2023-11-21T21:01:52;14.10;;;7.93;;
1753;SDS011;58380;48.312;9.246;2023-11-21T21:04:53;10.77;;;6.82;;
1753;SDS011;58380;48.312;9.246;2023-11-21T21:07:53;10.48;;;6.78;;
1753;SDS011;58380;48.312;9.246;2023-11-21T21:10:55;11.82;;;5.53;;
1753;SDS011;58380;48.312;9.246;2023-11-21T21:13:58;9.00;;;6.10;;
1753;SDS011;58380;48.312;9.246;2023-11-21T21:16:59;7.32;;;5.53;;
1753;SDS011;58380;48.312;9.246;2023-11-21T21:20:00;9.90;;;5.53;;
1753;SDS011;58380;48.312;9.246;2023-11-21T21:23:01;9.88;;;5.32;;
1753;SDS011;58380;48.312;9.246;2023-11-21T21:26:01;7.82;;;5.10;;
1753;SDS011;58380;48.312;9.246;2023-11-21T21:29:02;9.10;;;5.00;;
1753;SDS011;58380;48.312;9.246;2023-11-21T21:32:03;6.45;;;4.32;;
1753;SDS011;58380;48.312;9.246;2023-11-21T21:35:04;9.18;;;5.10;;
1753;SDS011;58380;48.312;9.246;2023-11-21T21:38:05;8.68;;;4.60;;
1753;SDS011;58380;48.312;9.246;2023-11-21T21:41:09;5.75;;;3.88;;
1753;SDS011;58380;48.312;9.246;2023-11-21T21:44:13;9.27;;;4.93;;
1753;SDS011;58380;48.312;9.246;2023-11-21T21:47:14;6.28;;;4.50;;
1753;SDS011;58380;48.312;9.246;2023-11-21T21:50:15;7.82;;;4.15;;
1753;SDS011;58380;48.312;9.246;2023-11-21T21:53:16;8.65;;;4.28;;
1753;SDS011;58380;48.312;9.246;2023-11-21T21:56:20;6.68;;;4.50;;
1753;SDS011;58380;48.312;9.246;2023-11-21T21:59:20;8.38;;;4.75;;
1753;SDS011;58380;48.312;9.246;2023-11-21T22:02:22;10.98;;;5.18;;
1753;SDS011;58380;48.312;9.246;2023-11-21T22:05:22;10.18;;;4.78;;
1753;SDS011;58380;48.312;9.246;2023-11-21T22:08:26;15.27;;;4.78;;
1753;SDS011;58380;48.312;9.246;2023-11-21T22:11:27;7.25;;;4.60;;
1753;SDS011;58380;48.312;9.246;2023-11-21T22:14:28;8.27;;;5.50;;
1753;SDS011;58380;48.312;9.246;2023-11-21T22:17:28;13.70;;;6.80;;
1753;SDS011;58380;48.312;9.246;2023-11-21T22:20:29;9.13;;;5.85;;
1753;SDS011;58380;48.312;9.246;2023-11-21T22:23:29;8.70;;;5.78;;
1753;SDS011;58380;48.312;9.246;2023-11-21T22:26:29;9.02;;;5.80;;
1753;SDS011;58380;48.312;9.246;2023-11-21T22:29:30;9.50;;;6.10;;
1753;SDS011;58380;48.312;9.246;2023-11-21T22:32:30;11.23;;;5.57;;
